Pagina principală
METAR-TAF:

METAR-TAF

Aeroporturi :

Malakula, Vanuatu

Latitudine: 16-27-26S, longitudine: 167-49-42E, elevație: 2 m

METAR: lipsă

Ora: 20:02 (09:02 UTC)

Prognoză

Raportul a fost făcut în urmă cu 4 ore și 32 de minute, la 04:30 UTC
Prognoză valabilă de la 26 ora 06 UTC la 27 ora 06 UTC
Vânt 6 kt de la Sud-est
Vizibilitate: 9000 m
Nori fragmentați la o înălțime de 2000 picior
Nori fragmentați la o înălțime de 1800 picior
averse de ploaie slabă

TAF: NVSL 260430Z 2606/2706 14006KT 9999 BKN020 INTER 2606/2612 9000 -SHRA BKN018

Observații și prognoze meteo pentru peste 4.000 de aeroporturi (rapoarte METAR și TAF).

Stațiile disponibile sunt reprezentate pe hartă prin puncte galbene și roșii.

Țineți indicatorul mouse-ului pe punctul dorit pentru a vedea denumirea stației.

Apoi, faceți clic pentru a vedea observațiile și prognozele meteorologice.

Pentru a schimba harta: Pentru mărire, faceți clic pe butoanele verzi cu cruce neagră; pentru micșorare, pe butonul verde cu o liniuță; pentru hărți învecinate, pe săgețile verzi.


METAR-TAF: